Time;durP1;ratioP1;P1;durP2;ratioP2;P2;SDS_P1;SDS_P2;PMS_P1;PMS_P2;Temp;Humidity;BMP_temperature;BMP_pressure;BME280_temperature;BME280_humidity;BME280_pressure;Samples;Min_cycle;Max_cycle;Signal;HPM_P1;HPM_P2
2021/07/19 00:00:48;;;;;;;3.40;1.80;;;24.40;62.00;;;;;;10092124;28;20037;-60
2021/07/19 00:05:39;;;;;;;2.97;1.98;;;24.40;61.40;;;;;;10092090;28;20025;-57
2021/07/19 00:10:29;;;;;;;3.00;1.88;;;24.30;61.70;;;;;;10092409;28;20060;-58
2021/07/19 00:15:24;;;;;;;3.42;2.10;;;24.30;61.90;;;;;;10093748;28;20029;-58
2021/07/19 00:20:16;;;;;;;3.33;2.05;;;24.30;62.30;;;;;;10091971;28;20167;-58
2021/07/19 00:25:09;;;;;;;3.00;1.80;;;24.30;61.90;;;;;;10092795;28;20020;-59
2021/07/19 00:29:59;;;;;;;3.75;2.10;;;24.20;62.20;;;;;;10092211;28;20441;-58
2021/07/19 00:34:50;;;;;;;4.85;2.15;;;24.10;62.50;;;;;;10092268;28;20104;-59
2021/07/19 00:39:41;;;;;;;5.10;2.67;;;24.20;62.40;;;;;;10092505;28;20170;-59
2021/07/19 00:44:32;;;;;;;4.43;2.88;;;24.10;62.40;;;;;;10094374;28;20021;-59
2021/07/19 00:49:24;;;;;;;3.30;2.20;;;24.00;62.60;;;;;;10098955;28;20098;-59
2021/07/19 00:54:18;;;;;;;5.43;3.58;;;23.90;63.20;;;;;;10099216;28;20033;-58
2021/07/19 00:59:09;;;;;;;6.13;2.53;;;23.80;63.50;;;;;;10099119;28;20120;-58
2021/07/19 01:04:01;;;;;;;3.38;2.05;;;23.70;63.90;;;;;;10096446;28;20055;-58
2021/07/19 01:08:53;;;;;;;4.28;2.78;;;23.50;64.40;;;;;;10098247;28;20067;-58
2021/07/19 01:13:43;;;;;;;4.05;2.17;;;23.50;64.70;;;;;;10097639;28;20049;-58
2021/07/19 01:18:34;;;;;;;3.35;2.30;;;23.40;64.70;;;;;;10098634;28;20040;-58
2021/07/19 01:23:24;;;;;;;3.45;2.30;;;23.30;64.90;;;;;;10097633;28;20099;-58
2021/07/19 01:28:24;;;;;;;5.05;2.40;;;23.30;65.10;;;;;;10075931;28;20090;-58
2021/07/19 01:33:16;;;;;;;3.45;2.30;;;23.30;65.20;;;;;;10093444;28;20208;-58
2021/07/19 01:38:09;;;;;;;3.90;2.20;;;23.10;65.60;;;;;;10097824;28;20029;-59
2021/07/19 01:43:00;;;;;;;5.15;2.95;;;23.10;65.80;;;;;;10096957;28;20029;-59
2021/07/19 01:47:51;;;;;;;4.50;2.28;;;23.10;66.00;;;;;;10097094;28;20033;-58
2021/07/19 01:52:43;;;;;;;2.72;1.95;;;22.90;66.60;;;;;;10096281;28;20239;-59
2021/07/19 01:57:34;;;;;;;3.58;1.95;;;22.90;66.90;;;;;;10095471;28;20036;-58
2021/07/19 02:02:26;;;;;;;3.55;2.33;;;22.90;66.90;;;;;;10060154;28;20021;-59
2021/07/19 02:07:20;;;;;;;3.28;1.90;;;22.80;67.00;;;;;;10095154;28;20049;-58
2021/07/19 02:12:11;;;;;;;4.95;2.15;;;22.70;67.30;;;;;;10095476;28;20037;-60
2021/07/19 02:17:03;;;;;;;4.85;2.20;;;22.60;67.80;;;;;;10096028;28;20021;-58
2021/07/19 02:21:54;;;;;;;3.42;2.42;;;22.60;67.90;;;;;;10095183;28;20568;-58
2021/07/19 02:26:46;;;;;;;3.22;2.10;;;22.60;67.70;;;;;;10095436;28;20045;-58
2021/07/19 02:31:39;;;;;;;3.20;1.83;;;22.60;67.90;;;;;;10095391;28;20049;-58
2021/07/19 02:36:30;;;;;;;3.10;2.30;;;22.50;68.40;;;;;;10095445;28;20070;-59
2021/07/19 02:41:24;;;;;;;4.53;2.28;;;22.40;69.10;;;;;;10111562;28;20033;-59
2021/07/19 02:46:15;;;;;;;4.05;1.92;;;22.40;68.60;;;;;;10095048;28;20036;-59
2021/07/19 02:51:09;;;;;;;3.10;2.50;;;22.40;68.70;;;;;;10094103;28;20127;-58
2021/07/19 02:56:01;;;;;;;4.28;2.50;;;22.30;69.00;;;;;;10094803;28;20033;-58
2021/07/19 03:00:52;;;;;;;3.78;2.20;;;22.30;68.80;;;;;;10094310;28;20029;-58
2021/07/19 03:05:49;;;;;;;2.78;1.95;;;22.20;69.30;;;;;;10092878;28;20064;-58
2021/07/19 03:10:41;;;;;;;5.80;2.10;;;22.20;69.40;;;;;;10091242;28;20336;-58
2021/07/19 03:15:35;;;;;;;2.53;1.80;;;22.10;69.50;;;;;;10093692;28;20039;-58
2021/07/19 03:20:26;;;;;;;1.83;1.67;;;22.00;70.00;;;;;;10093410;28;20047;-58
2021/07/19 03:25:18;;;;;;;3.10;2.15;;;21.90;70.40;;;;;;10093286;28;20037;-58
2021/07/19 03:30:09;;;;;;;2.83;2.10;;;22.00;70.20;;;;;;10093210;28;20048;-57
2021/07/19 03:35:02;;;;;;;3.75;2.08;;;22.00;70.10;;;;;;10093711;28;20021;-58
2021/07/19 03:39:53;;;;;;;3.28;2.25;;;21.80;70.70;;;;;;10092808;28;20037;-58
2021/07/19 03:44:44;;;;;;;4.45;2.22;;;21.80;70.70;;;;;;10092929;28;20035;-58
2021/07/19 03:49:36;;;;;;;5.15;2.17;;;21.80;70.70;;;;;;10092952;28;20083;-58
2021/07/19 03:54:27;;;;;;;5.97;2.45;;;21.80;70.80;;;;;;10092857;28;20033;-59
2021/07/19 03:59:22;;;;;;;3.22;1.95;;;21.80;70.50;;;;;;10092793;28;20032;-58
2021/07/19 04:04:18;;;;;;;3.33;1.95;;;21.70;71.10;;;;;;10092953;28;20032;-58
2021/07/19 04:09:09;;;;;;;6.53;2.35;;;21.60;71.40;;;;;;10092387;28;20058;-58
2021/07/19 04:14:01;;;;;;;5.18;2.35;;;21.50;71.50;;;;;;10091979;28;20051;-57
2021/07/19 04:18:52;;;;;;;6.88;2.67;;;21.40;71.50;;;;;;10096346;28;20031;-59
2021/07/19 04:23:43;;;;;;;2.53;1.77;;;21.40;71.80;;;;;;10100038;28;20048;-58
2021/07/19 04:28:34;;;;;;;4.07;2.88;;;21.40;71.90;;;;;;10099790;28;20086;-58
2021/07/19 04:33:25;;;;;;;3.92;2.20;;;21.40;71.90;;;;;;10099400;28;20065;-58
2021/07/19 04:38:21;;;;;;;3.78;2.00;;;21.40;72.20;;;;;;10099427;28;20029;-59
2021/07/19 04:43:14;;;;;;;3.88;2.35;;;21.30;72.50;;;;;;10098997;28;20075;-58
2021/07/19 04:48:05;;;;;;;2.90;1.85;;;21.40;72.60;;;;;;10098811;28;20074;-58
2021/07/19 04:52:55;;;;;;;3.30;2.35;;;21.50;72.30;;;;;;10099250;28;20044;-58
2021/07/19 04:57:50;;;;;;;5.07;2.15;;;21.60;71.90;;;;;;10099584;28;20032;-60
2021/07/19 05:02:42;;;;;;;7.55;2.88;;;21.60;72.00;;;;;;10098611;28;20052;-58
2021/07/19 05:07:34;;;;;;;4.25;2.50;;;21.50;72.40;;;;;;10096089;28;20667;-58
2021/07/19 05:12:25;;;;;;;4.45;2.50;;;21.60;72.30;;;;;;10096466;28;20459;-59
2021/07/19 05:17:16;;;;;;;3.85;2.60;;;21.70;72.20;;;;;;10097794;28;20454;-59
2021/07/19 05:22:15;;;;;;;6.65;2.50;;;21.60;72.30;;;;;;10097321;28;20087;-59
2021/07/19 05:27:08;;;;;;;7.40;3.35;;;21.70;72.80;;;;;;10098383;28;20031;-58
2021/07/19 05:31:58;;;;;;;3.08;2.30;;;21.70;72.40;;;;;;10096483;28;20041;-58
2021/07/19 05:36:49;;;;;;;3.67;2.75;;;21.80;72.10;;;;;;10097157;28;20025;-59
2021/07/19 05:41:41;;;;;;;5.07;2.85;;;21.70;72.40;;;;;;10111762;28;20489;-60
2021/07/19 05:46:33;;;;;;;3.47;2.50;;;22.00;71.90;;;;;;10120928;28;20028;-58
2021/07/19 05:51:23;;;;;;;3.65;2.35;;;22.00;71.90;;;;;;10095618;28;20040;-58
2021/07/19 05:56:14;;;;;;;5.03;2.53;;;21.80;72.20;;;;;;10096749;28;20032;-58
2021/07/19 06:01:05;;;;;;;6.13;2.95;;;21.80;72.70;;;;;;10095954;28;20094;-59
2021/07/19 06:05:55;;;;;;;7.78;3.30;;;21.90;72.50;;;;;;10096175;28;20209;-58
2021/07/19 06:10:46;;;;;;;3.33;2.50;;;22.00;72.40;;;;;;10095487;28;20064;-59
2021/07/19 06:15:38;;;;;;;3.42;2.28;;;22.00;72.20;;;;;;10094083;28;20109;-59
2021/07/19 06:20:29;;;;;;;4.28;2.83;;;22.10;72.20;;;;;;10093335;28;20115;-59
2021/07/19 06:25:19;;;;;;;3.78;2.80;;;22.20;72.00;;;;;;10082191;28;20562;-59
2021/07/19 06:30:12;;;;;;;5.72;3.42;;;22.30;72.00;;;;;;10095200;28;20128;-58
2021/07/19 06:35:04;;;;;;;5.25;2.95;;;22.30;72.10;;;;;;10094312;28;20039;-58
2021/07/19 06:39:55;;;;;;;3.83;2.42;;;22.30;72.30;;;;;;10083750;28;20028;-58
2021/07/19 06:44:47;;;;;;;4.50;2.47;;;22.40;72.10;;;;;;10093034;28;20159;-59
2021/07/19 06:49:37;;;;;;;4.03;2.67;;;22.40;72.10;;;;;;10093633;28;20049;-58
2021/07/19 06:54:28;;;;;;;4.88;3.22;;;22.40;72.10;;;;;;10093878;28;20399;-58
2021/07/19 06:59:19;;;;;;;6.20;2.50;;;22.60;71.50;;;;;;10091599;28;20162;-58
2021/07/19 07:04:09;;;;;;;4.50;2.75;;;22.80;71.20;;;;;;10094278;28;20029;-59
2021/07/19 07:09:00;;;;;;;5.03;2.83;;;22.80;71.20;;;;;;10093213;28;20122;-57
2021/07/19 07:13:52;;;;;;;3.60;2.63;;;22.80;71.30;;;;;;10093383;28;20037;-58
2021/07/19 07:18:43;;;;;;;7.05;3.38;;;22.90;71.10;;;;;;10094595;28;20025;-58
2021/07/19 07:23:33;;;;;;;4.75;2.70;;;22.80;71.20;;;;;;10093936;28;20658;-58
2021/07/19 07:28:24;;;;;;;4.03;2.65;;;22.90;71.10;;;;;;10093989;28;20112;-58
2021/07/19 07:33:15;;;;;;;5.30;3.03;;;23.00;70.70;;;;;;10092659;28;20036;-58
2021/07/19 07:38:05;;;;;;;4.22;3.15;;;23.00;70.80;;;;;;10092488;28;20028;-58
2021/07/19 07:42:56;;;;;;;3.10;2.55;;;23.20;70.60;;;;;;10092546;28;20036;-58
2021/07/19 07:47:46;;;;;;;3.92;2.50;;;23.20;70.30;;;;;;10092135;28;20059;-59
2021/07/19 07:52:39;;;;;;;4.90;3.42;;;23.40;70.20;;;;;;10093603;28;20056;-59
2021/07/19 07:57:29;;;;;;;5.10;2.45;;;23.40;70.20;;;;;;10100024;28;20023;-58
2021/07/19 08:02:20;;;;;;;3.85;2.72;;;23.60;69.90;;;;;;10099666;28;20036;-59
2021/07/19 08:07:11;;;;;;;3.10;2.30;;;23.70;69.70;;;;;;10097468;28;20415;-59
2021/07/19 08:12:02;;;;;;;3.03;2.35;;;23.70;69.70;;;;;;10098092;28;20423;-59
2021/07/19 08:16:52;;;;;;;3.70;2.63;;;23.80;69.40;;;;;;10099488;28;20017;-59
2021/07/19 08:21:43;;;;;;;8.07;3.35;;;23.90;69.10;;;;;;10099475;28;20055;-59
2021/07/19 08:26:35;;;;;;;3.60;2.85;;;24.10;68.80;;;;;;10099385;28;20103;-59
2021/07/19 08:31:27;;;;;;;3.75;2.45;;;24.00;68.90;;;;;;10098971;28;20485;-59
2021/07/19 08:36:18;;;;;;;5.88;3.28;;;24.20;68.70;;;;;;10098297;28;20036;-59
2021/07/19 08:41:09;;;;;;;6.18;2.60;;;24.10;68.50;;;;;;10098129;28;20405;-57
2021/07/19 08:46:00;;;;;;;4.82;2.92;;;24.30;68.30;;;;;;10115199;28;20039;-58
2021/07/19 08:50:52;;;;;;;5.13;2.42;;;24.30;68.30;;;;;;10104126;28;20122;-57
2021/07/19 08:55:50;;;;;;;3.00;2.20;;;24.40;68.10;;;;;;10098036;28;20072;-58
2021/07/19 09:00:41;;;;;;;4.47;2.80;;;24.50;67.70;;;;;;10097548;28;20036;-58
2021/07/19 09:05:32;;;;;;;5.43;3.53;;;24.60;67.60;;;;;;10096209;28;20388;-59
2021/07/19 09:10:29;;;;;;;6.13;2.75;;;24.70;67.50;;;;;;10096935;28;20056;-59
2021/07/19 09:15:38;;;;;;;4.75;2.20;;;24.80;67.20;;;;;;10097046;28;20225;-58
2021/07/19 09:20:32;;;;;;;5.35;2.67;;;24.90;66.90;;;;;;10092994;28;20183;-59
2021/07/19 09:25:23;;;;;;;3.63;2.08;;;25.20;66.60;;;;;;10097603;28;20040;-59
2021/07/19 09:30:16;;;;;;;4.50;3.00;;;25.30;66.40;;;;;;10093906;28;20037;-58
2021/07/19 09:35:10;;;;;;;4.40;3.13;;;25.40;66.00;;;;;;10097658;28;20025;-58
2021/07/19 09:40:07;;;;;;;3.50;2.38;;;25.60;65.60;;;;;;10092915;28;20052;-59
2021/07/19 09:45:00;;;;;;;3.30;2.17;;;25.50;65.80;;;;;;10093674;28;20033;-58
2021/07/19 09:49:51;;;;;;;2.80;2.22;;;25.50;65.80;;;;;;10092807;28;20065;-59
2021/07/19 09:54:44;;;;;;;4.90;2.25;;;25.50;65.50;;;;;;10094642;28;20190;-59
2021/07/19 09:59:54;;;;;;;4.07;2.55;;;25.50;65.20;;;;;;10095360;28;20033;-57
2021/07/19 10:04:44;;;;;;;3.30;2.45;;;25.80;64.50;;;;;;10096439;28;20029;-58
2021/07/19 10:09:38;;;;;;;3.47;2.40;;;25.70;64.50;;;;;;10091612;28;20567;-63
2021/07/19 10:14:35;;;;;;;3.13;2.27;;;25.90;64.10;;;;;;10096197;28;20086;-58
2021/07/19 10:19:27;;;;;;;5.28;2.53;;;26.00;63.70;;;;;;10095902;28;20634;-59
2021/07/19 10:24:19;;;;;;;3.78;2.33;;;25.90;63.60;;;;;;10095653;28;20025;-62
2021/07/19 10:29:10;;;;;;;4.43;2.28;;;26.00;63.10;;;;;;10095179;28;20291;-58
2021/07/19 10:34:03;;;;;;;3.53;2.10;;;26.00;63.00;;;;;;10095106;28;20284;-58
2021/07/19 10:39:00;;;;;;;4.38;2.17;;;26.20;62.40;;;;;;10092069;28;20032;-58
2021/07/19 10:44:12;;;;;;;2.92;2.30;;;26.20;62.10;;;;;;10098450;28;20025;-58
2021/07/19 10:49:12;;;;;;;3.90;1.85;;;26.30;61.90;;;;;;10093997;28;20521;-57
2021/07/19 10:54:14;;;;;;;2.45;1.83;;;26.30;61.30;;;;;;10093922;28;20036;-59
2021/07/19 10:59:06;;;;;;;2.78;2.15;;;26.40;61.10;;;;;;10091541;28;20188;-58
2021/07/19 11:04:02;;;;;;;4.50;2.42;;;26.40;60.90;;;;;;10091158;28;20028;-58
2021/07/19 11:08:53;;;;;;;4.75;2.30;;;26.50;60.70;;;;;;10090302;28;20540;-57
2021/07/19 11:13:55;;;;;;;3.30;2.08;;;26.60;60.70;;;;;;10091169;28;20192;-58
2021/07/19 11:18:54;;;;;;;3.38;1.73;;;26.60;59.40;;;;;;10092662;28;20028;-59
2021/07/19 11:23:45;;;;;;;2.60;1.70;;;26.60;59.20;;;;;;10087449;28;20106;-57
2021/07/19 11:28:42;;;;;;;6.43;2.20;;;26.80;58.50;;;;;;10092361;28;20402;-57
2021/07/19 11:33:39;;;;;;;4.30;1.83;;;26.80;56.90;;;;;;10092462;28;20029;-57
2021/07/19 11:38:38;;;;;;;2.75;1.73;;;26.90;57.20;;;;;;10093764;28;20478;-58
2021/07/19 11:43:36;;;;;;;4.15;1.73;;;26.90;56.80;;;;;;10092902;28;20029;-57
2021/07/19 11:48:27;;;;;;;3.30;1.95;;;27.00;56.40;;;;;;10092962;28;20262;-57
2021/07/19 11:53:21;;;;;;;2.88;1.70;;;27.10;55.80;;;;;;10091397;28;20111;-58
2021/07/19 11:58:14;;;;;;;3.33;1.50;;;27.10;54.80;;;;;;10093131;28;20099;-58
2021/07/19 12:03:07;;;;;;;3.25;1.35;;;27.20;53.60;;;;;;10092305;28;20033;-58
2021/07/19 12:08:09;;;;;;;4.88;2.40;;;27.20;53.40;;;;;;10092715;28;20128;-58
2021/07/19 12:13:11;;;;;;;3.10;2.38;;;27.50;52.60;;;;;;10090171;28;20547;-59
2021/07/19 12:18:02;;;;;;;7.38;3.00;;;27.60;50.10;;;;;;10119023;28;20170;-58
2021/07/19 12:22:54;;;;;;;3.72;2.22;;;27.90;51.50;;;;;;10092595;28;20120;-58
2021/07/19 12:28:00;;;;;;;3.45;2.08;;;28.10;51.30;;;;;;10092339;28;20052;-58
2021/07/19 12:32:52;;;;;;;3.42;2.13;;;28.50;51.50;;;;;;10091857;28;20041;-59
2021/07/19 12:37:53;;;;;;;5.22;1.98;;;29.20;51.80;;;;;;10092654;28;20033;-58
2021/07/19 12:42:45;;;;;;;2.65;1.83;;;29.40;51.10;;;;;;10098750;28;20037;-57
2021/07/19 12:47:37;;;;;;;2.00;1.80;;;29.50;50.80;;;;;;10096849;28;20021;-57
2021/07/19 12:52:33;;;;;;;3.35;1.75;;;30.00;50.40;;;;;;10098331;28;20049;-57
2021/07/19 12:57:24;;;;;;;2.05;1.40;;;30.30;50.00;;;;;;10098797;28;20059;-57
2021/07/19 13:02:16;;;;;;;4.72;2.20;;;30.70;48.90;;;;;;10099475;28;20041;-58
2021/07/19 13:07:07;;;;;;;5.15;1.58;;;31.80;47.80;;;;;;10098436;28;20132;-57
2021/07/19 13:12:05;;;;;;;4.10;1.80;;;33.20;46.60;;;;;;10097191;28;20033;-58
2021/07/19 13:17:00;;;;;;;2.15;2.00;;;33.40;44.80;;;;;;10097701;28;20471;-59
2021/07/19 13:21:56;;;;;;;5.57;1.92;;;33.90;44.60;;;;;;10096066;28;20029;-58
2021/07/19 13:26:46;;;;;;;2.20;2.00;;;34.70;43.60;;;;;;10098137;28;20075;-58
2021/07/19 13:31:37;;;;;;;4.43;1.90;;;35.90;42.50;;;;;;10096949;28;20073;-58
2021/07/19 13:36:31;;;;;;;;;;;36.30;41.40;;;;;;10098459;28;20123;-58
2021/07/19 13:41:23;;;;;;;3.85;2.15;;;36.40;39.30;;;;;;10096996;28;19915;-58
2021/07/19 13:46:14;;;;;;;2.53;2.10;;;36.60;40.90;;;;;;10096907;28;20041;-58
2021/07/19 13:51:05;;;;;;;3.22;2.28;;;36.80;39.80;;;;;;10093245;28;20037;-59
2021/07/19 13:56:00;;;;;;;3.05;2.00;;;36.90;39.10;;;;;;10096599;28;20036;-58
2021/07/19 14:00:51;;;;;;;3.03;2.00;;;37.30;38.00;;;;;;10093172;28;20028;-59
2021/07/19 14:05:43;;;;;;;4.65;2.63;;;36.70;37.70;;;;;;10094944;28;20385;-59
2021/07/19 14:10:34;;;;;;;2.38;1.88;;;37.50;37.00;;;;;;10094191;28;20071;-60
2021/07/19 14:15:24;;;;;;;2.67;2.30;;;37.80;36.80;;;;;;10096490;28;20040;-59
2021/07/19 14:20:16;;;;;;;2.85;2.20;;;37.20;37.00;;;;;;10095965;28;20110;-58
2021/07/19 14:25:08;;;;;;;3.85;3.00;;;37.20;36.90;;;;;;10095020;28;20047;-60
2021/07/19 14:29:58;;;;;;;3.90;2.60;;;37.40;36.50;;;;;;10094036;28;20451;-64
2021/07/19 14:34:50;;;;;;;2.40;2.20;;;37.30;36.60;;;;;;10094711;28;20037;-59
2021/07/19 14:39:41;;;;;;;4.13;2.38;;;36.50;37.20;;;;;;10094496;28;20057;-59
2021/07/19 14:44:32;;;;;;;4.03;2.30;;;36.90;36.60;;;;;;10094040;28;20025;-60
2021/07/19 14:49:22;;;;;;;3.45;2.20;;;36.90;36.30;;;;;;10093067;28;20045;-60
2021/07/19 14:54:13;;;;;;;4.70;2.40;;;36.80;36.40;;;;;;10094452;28;20229;-60
2021/07/19 14:59:03;;;;;;;5.00;2.47;;;35.90;37.10;;;;;;10094126;28;20036;-59
2021/07/19 15:03:54;;;;;;;5.73;2.20;;;35.00;38.40;;;;;;10091955;28;20029;-61
2021/07/19 15:08:45;;;;;;;4.22;3.00;;;36.50;36.90;;;;;;10092812;28;20045;-60
2021/07/19 15:13:36;;;;;;;;;;;36.80;36.20;;;;;;10093356;28;20037;-57
2021/07/19 15:18:26;;;;;;;3.03;2.33;;;36.90;35.20;;;;;;10090815;28;19971;-58
2021/07/19 15:23:17;;;;;;;2.17;1.92;;;38.20;35.50;;;;;;10090691;28;20175;-60
2021/07/19 15:28:08;;;;;;;3.88;2.10;;;38.60;35.10;;;;;;10093083;28;20052;-62
2021/07/19 15:32:58;;;;;;;5.15;3.15;;;38.00;35.40;;;;;;10092208;28;20520;-61
2021/07/19 15:37:49;;;;;;;3.85;2.58;;;37.90;35.30;;;;;;10092986;28;20040;-60
2021/07/19 15:42:41;;;;;;;4.10;2.95;;;38.60;34.90;;;;;;10091170;28;20056;-58
2021/07/19 15:47:31;;;;;;;3.05;2.55;;;37.90;35.00;;;;;;10092848;28;20033;-59
2021/07/19 15:52:22;;;;;;;4.18;3.10;;;38.40;34.30;;;;;;10092698;28;20419;-59
2021/07/19 15:57:13;;;;;;;3.38;2.00;;;38.80;33.90;;;;;;10092731;28;20395;-62
2021/07/19 16:02:03;;;;;;;48.75;40.42;;;38.40;34.20;;;;;;10092347;28;20077;-59
2021/07/19 16:06:54;;;;;;;4.57;3.75;;;38.90;34.10;;;;;;10092897;28;20036;-61
2021/07/19 16:11:45;;;;;;;4.65;3.47;;;38.40;34.20;;;;;;10091734;28;20053;-61
2021/07/19 16:16:39;;;;;;;4.55;2.70;;;38.80;33.70;;;;;;10098158;28;20434;-59
2021/07/19 16:21:30;;;;;;;2.85;2.00;;;38.50;34.00;;;;;;10098662;28;20292;-60
2021/07/19 16:26:21;;;;;;;3.58;2.40;;;40.40;32.20;;;;;;10096965;28;20021;-60
2021/07/19 16:31:12;;;;;;;2.50;2.30;;;40.80;31.90;;;;;;10097140;28;20037;-60
2021/07/19 16:36:04;;;;;;;6.03;2.55;;;41.00;31.50;;;;;;10098275;28;20029;-61
2021/07/19 16:40:54;;;;;;;3.38;2.25;;;41.50;31.20;;;;;;10100298;28;20277;-63
2021/07/19 16:50:35;;;;;;;;;;;38.90;32.20;;;;;;10099532;28;20051;-61
2021/07/19 16:55:26;;;;;;;2.27;2.00;;;40.00;31.70;;;;;;10099787;28;19905;-60
2021/07/19 17:00:17;;;;;;;3.05;2.10;;;40.60;31.10;;;;;;10098874;28;20017;-61
2021/07/19 17:05:12;;;;;;;4.20;2.33;;;41.10;30.50;;;;;;10099062;28;20016;-61
2021/07/19 17:10:05;;;;;;;5.85;2.45;;;41.20;29.90;;;;;;10098140;28;20664;-61
2021/07/19 17:14:56;;;;;;;4.28;2.30;;;40.40;30.20;;;;;;10098673;28;20036;-62
2021/07/19 17:19:47;;;;;;;3.50;2.55;;;40.50;30.10;;;;;;10097387;28;20033;-61
2021/07/19 17:24:38;;;;;;;;;;;40.20;30.10;;;;;;10096577;28;20512;-62
2021/07/19 17:29:28;;;;;;;5.27;3.40;;;39.90;30.20;;;;;;10097213;28;19916;-62
2021/07/19 17:34:19;;;;;;;4.23;2.90;;;37.90;32.30;;;;;;10097701;28;20531;-62
2021/07/19 17:39:10;;;;;;;7.57;3.03;;;38.40;31.50;;;;;;10098075;28;20391;-62
2021/07/19 17:44:01;;;;;;;5.63;3.65;;;38.60;31.30;;;;;;10097824;28;20028;-63
2021/07/19 17:48:52;;;;;;;6.82;3.42;;;36.60;33.30;;;;;;10096911;28;20431;-62
2021/07/19 17:53:42;;;;;;;5.40;3.47;;;35.40;33.90;;;;;;10097449;28;20054;-63
2021/07/19 17:58:33;;;;;;;6.65;4.07;;;35.40;34.50;;;;;;10096282;28;20029;-62
2021/07/19 18:03:24;;;;;;;5.38;3.70;;;34.40;34.80;;;;;;10097023;28;20033;-63
2021/07/19 18:08:15;;;;;;;7.68;4.57;;;32.70;36.70;;;;;;10096342;28;20515;-61
2021/07/19 18:13:05;;;;;;;7.45;4.65;;;31.60;38.00;;;;;;10095050;28;20105;-64
2021/07/19 18:17:57;;;;;;;8.85;5.47;;;31.00;38.40;;;;;;10095750;28;20033;-62
2021/07/19 18:23:01;;;;;;;7.28;4.82;;;30.90;38.40;;;;;;10088728;28;20153;-62
2021/07/19 18:33:04;;;;;;;7.13;4.10;;;30.20;39.60;;;;;;10083910;28;20055;-61
2021/07/19 18:37:56;;;;;;;9.45;5.13;;;30.00;40.00;;;;;;10093100;28;20037;-62
2021/07/19 18:42:46;;;;;;;10.35;5.88;;;29.90;40.10;;;;;;10093853;28;20025;-62
2021/07/19 18:47:37;;;;;;;7.68;5.05;;;29.70;40.60;;;;;;10092621;28;20036;-62
2021/07/19 18:52:28;;;;;;;7.82;4.60;;;29.60;40.90;;;;;;10093722;28;20037;-63
2021/07/19 18:57:20;;;;;;;7.30;4.65;;;29.30;41.40;;;;;;10093239;28;20475;-62
2021/07/19 19:02:13;;;;;;;6.70;4.05;;;29.20;41.50;;;;;;10093446;28;20079;-60
2021/07/19 19:07:04;;;;;;;8.73;4.65;;;28.90;42.40;;;;;;10089945;28;20120;-62
2021/07/19 19:11:55;;;;;;;7.25;4.57;;;28.70;42.70;;;;;;10093674;28;20148;-62
2021/07/19 19:16:45;;;;;;;5.97;4.10;;;28.40;43.00;;;;;;10093584;28;20012;-62
2021/07/19 19:21:37;;;;;;;7.28;3.97;;;28.40;43.20;;;;;;10093374;28;20491;-61
2021/07/19 19:26:28;;;;;;;7.32;5.65;;;28.20;43.70;;;;;;10094733;28;20131;-62
2021/07/19 19:31:23;;;;;;;8.00;4.90;;;28.10;44.10;;;;;;10093089;28;20530;-63
2021/07/19 19:36:15;;;;;;;10.48;5.40;;;28.10;44.00;;;;;;10094044;28;20385;-61
2021/07/19 19:41:06;;;;;;;8.13;4.78;;;27.90;44.50;;;;;;10093540;28;20028;-62
2021/07/19 19:45:56;;;;;;;7.72;4.60;;;27.90;44.90;;;;;;10091886;28;20447;-63
2021/07/19 19:50:47;;;;;;;8.38;5.20;;;27.50;45.40;;;;;;10098144;28;20048;-61
2021/07/19 19:55:38;;;;;;;9.98;5.03;;;27.30;45.70;;;;;;10101861;28;20487;-62
2021/07/19 20:00:29;;;;;;;10.70;6.40;;;27.10;46.30;;;;;;10100516;28;20598;-62
2021/07/19 20:05:20;;;;;;;10.93;5.13;;;27.10;46.50;;;;;;10098888;28;20097;-62
2021/07/19 20:10:11;;;;;;;7.82;5.07;;;27.10;46.60;;;;;;10098562;28;20570;-62
2021/07/19 20:15:05;;;;;;;9.52;5.53;;;26.90;47.00;;;;;;10099296;28;20027;-62
2021/07/19 20:19:56;;;;;;;11.27;5.57;;;26.80;47.20;;;;;;10094901;28;20075;-62
2021/07/19 20:24:46;;;;;;;11.02;5.70;;;26.80;47.10;;;;;;10100408;28;20396;-62
2021/07/19 20:29:37;;;;;;;10.20;5.72;;;26.70;47.40;;;;;;10099964;28;20415;-60
2021/07/19 20:34:28;;;;;;;10.23;5.70;;;26.50;47.90;;;;;;10098864;28;20068;-61
2021/07/19 20:39:18;;;;;;;10.30;5.40;;;26.40;47.90;;;;;;10099943;28;20051;-61
2021/07/19 20:44:09;;;;;;;12.27;5.72;;;26.30;48.30;;;;;;10100130;28;20133;-60
2021/07/19 20:49:01;;;;;;;9.77;6.38;;;26.10;48.90;;;;;;10098913;28;20029;-60
2021/07/19 20:53:53;;;;;;;12.57;6.13;;;25.80;49.50;;;;;;10099762;28;20119;-60
2021/07/19 20:58:43;;;;;;;9.43;5.78;;;26.00;49.00;;;;;;10098735;28;20074;-61
2021/07/19 21:03:34;;;;;;;9.85;6.18;;;25.80;49.80;;;;;;10100517;28;20077;-59
2021/07/19 21:08:25;;;;;;;10.98;6.30;;;25.60;50.30;;;;;;10114561;28;20507;-60
2021/07/19 21:13:16;;;;;;;11.40;6.30;;;25.60;50.40;;;;;;10109287;28;20068;-59
2021/07/19 21:18:07;;;;;;;12.38;7.15;;;25.50;50.80;;;;;;10097884;28;20029;-61
2021/07/19 21:22:58;;;;;;;13.45;6.88;;;25.40;51.10;;;;;;10097956;28;20052;-59
2021/07/19 21:27:48;;;;;;;10.18;6.55;;;25.30;51.30;;;;;;10097987;28;20028;-59
2021/07/19 21:32:40;;;;;;;13.20;6.53;;;25.30;51.30;;;;;;10097478;28;20064;-60
2021/07/19 21:37:31;;;;;;;11.50;6.82;;;25.30;51.40;;;;;;10097675;28;20108;-61
2021/07/19 21:42:21;;;;;;;11.30;7.68;;;25.10;51.70;;;;;;10097365;28;20104;-63
2021/07/19 21:47:12;;;;;;;11.30;6.63;;;25.00;52.10;;;;;;10096713;28;20522;-63
2021/07/19 21:52:04;;;;;;;10.60;6.63;;;24.90;52.20;;;;;;10095125;28;20029;-61
2021/07/19 21:56:54;;;;;;;10.18;6.82;;;24.90;52.50;;;;;;10097066;28;20037;-60
2021/07/19 22:01:46;;;;;;;14.57;8.07;;;24.70;52.80;;;;;;10096608;28;20032;-60
2021/07/19 22:06:36;;;;;;;12.38;7.38;;;24.60;53.20;;;;;;10093830;28;20037;-60
2021/07/19 22:11:27;;;;;;;12.43;7.57;;;24.40;53.60;;;;;;10094632;28;20110;-61
2021/07/19 22:16:17;;;;;;;12.32;7.78;;;24.30;54.00;;;;;;10095970;28;20160;-61
2021/07/19 22:21:08;;;;;;;13.32;7.40;;;24.40;53.80;;;;;;10077380;28;20030;-59
2021/07/19 22:25:59;;;;;;;10.68;6.38;;;24.20;54.40;;;;;;10066492;28;20040;-60
2021/07/19 22:30:49;;;;;;;13.13;7.32;;;24.10;54.40;;;;;;10094781;28;20120;-60
2021/07/19 22:35:40;;;;;;;13.60;7.68;;;24.10;54.70;;;;;;10095394;28;20032;-60
2021/07/19 22:40:31;;;;;;;13.25;7.50;;;24.00;55.00;;;;;;10094881;28;20424;-60
2021/07/19 22:45:26;;;;;;;12.30;7.18;;;23.90;55.20;;;;;;10094801;28;20021;-60
2021/07/19 22:50:17;;;;;;;10.23;6.30;;;23.80;55.60;;;;;;10091641;28;20033;-60
2021/07/19 22:55:10;;;;;;;11.15;7.25;;;23.70;56.00;;;;;;10094565;28;20021;-60
2021/07/19 23:00:01;;;;;;;13.77;8.52;;;23.40;56.60;;;;;;10093503;28;20037;-60
2021/07/19 23:04:51;;;;;;;12.02;7.18;;;23.30;56.80;;;;;;10094437;28;20476;-60
2021/07/19 23:09:42;;;;;;;11.98;7.22;;;23.40;56.80;;;;;;10093331;28;20056;-59
2021/07/19 23:14:33;;;;;;;14.43;8.23;;;23.20;57.30;;;;;;10093994;28;20166;-59
2021/07/19 23:19:24;;;;;;;13.73;9.02;;;23.10;57.60;;;;;;10093281;28;20052;-59
2021/07/19 23:24:15;;;;;;;13.23;8.18;;;23.10;57.70;;;;;;10093193;28;20029;-60
2021/07/19 23:29:05;;;;;;;13.13;7.25;;;23.00;58.00;;;;;;10092730;28;20049;-59
2021/07/19 23:33:56;;;;;;;14.52;7.68;;;22.80;58.50;;;;;;10093737;28;20503;-60
2021/07/19 23:38:47;;;;;;;14.60;7.78;;;22.70;58.80;;;;;;10093063;28;20522;-59
2021/07/19 23:43:39;;;;;;;15.93;8.80;;;22.50;59.40;;;;;;10093267;28;20036;-59
2021/07/19 23:48:30;;;;;;;14.35;7.38;;;22.50;59.00;;;;;;10092779;28;20280;-59
2021/07/19 23:53:20;;;;;;;15.45;7.25;;;22.60;59.00;;;;;;10093274;28;20135;-59
2021/07/19 23:58:11;;;;;;;11.95;7.10;;;22.50;59.00;;;;;;10093299;28;20021;-59
